PDT,Max TemperatureF,Mean TemperatureF,Min TemperatureF,Max Dew PointF,MeanDew PointF,Min DewpointF,Max Humidity, Mean Humidity, Min Humidity, Max Sea Level PressureIn, Mean Sea Level PressureIn, Min Sea Level PressureIn, Max VisibilityMiles, Mean VisibilityMiles, Min VisibilityMiles, Max Wind SpeedMPH, Mean Wind SpeedMPH, Max Gust SpeedMPH,PrecipitationIn, CloudCover, Events, WindDirDegrees
2013-3-1,62,54,46,50,47,43,93,79,64,30.46,30.41,30.33,10,10,10,13,4,16,0.00,6,,226
2013-3-2,56,47,38,47,43,34,93,80,66,30.32,30.24,30.19,10,10,10,14,5,18,T,7,,257
2013-3-3,52,41,29,36,31,27,96,70,44,30.35,30.31,30.26,10,9,2,9,3,,0.00,2,,356
2013-3-4,56,44,31,32,30,24,89,60,30,30.25,30.08,29.93,10,10,10,9,4,,0.00,0,,331
2013-3-5,48,41,33,45,41,30,92,85,77,29.92,29.79,29.65,10,7,2,17,4,29,0.37,8,Rain,61
2013-3-6,47,43,38,44,41,35,100,91,82,29.98,29.72,29.57,10,8,5,16,8,22,0.26,7,Rain,199
2013-3-7,56,44,32,39,34,30,96,70,43,30.08,30.04,29.99,10,9,1,13,2,14,0.00,0,,326
2013-3-8,60,45,30,41,33,27,92,64,35,30.23,30.08,30.04,10,8,1,6,2,11,0.00,0,,14
2013-3-9,59,44,29,42,33,27,100,74,47,30.51,30.38,30.23,10,6,0,7,2,12,0.00,1,Fog,73
2013-3-10,53,44,34,44,39,32,96,82,68,30.51,30.47,30.43,10,10,2,6,1,9,T,6,Rain,14
2013-3-11,55,46,37,48,43,36,100,86,72,30.44,30.38,30.25,10,5,0,12,3,14,T,7,Fog,193
2013-3-12,62,54,46,48,45,42,93,74,55,30.24,30.21,30.17,10,8,1,12,5,15,0.00,6,,223
2013-3-13,64,56,47,49,46,43,86,73,60,30.24,30.18,30.11,10,10,10,9,2,15,T,3,Rain,331
2013-3-14,55,51,46,46,44,42,86,74,61,30.22,30.13,30.07,10,10,10,21,5,38,T,3,Rain,217
2013-3-15,63,54,44,50,45,42,93,73,52,30.25,30.22,30.18,10,10,10,14,4,16,0.00,4,,215
2013-3-16,51,45,38,45,41,33,93,82,71,30.19,30.12,30.04,10,9,4,23,9,31,0.10,7,Rain,232
2013-3-17,49,42,35,37,34,30,89,73,56,30.33,30.28,30.19,10,9,5,18,8,23,0.05,5,Rain,244
2013-3-18,53,46,39,37,34,29,89,70,50,30.31,30.25,30.17,10,10,10,8,3,,0.00,1,,223
2013-3-19,52,46,39,43,40,34,92,81,70,30.14,29.90,29.68,10,5,2,16,3,23,0.52,7,Rain,14
2013-3-20,53,45,37,49,42,32,89,79,68,30.19,29.80,29.55,10,9,2,30,15,39,0.41,6,Rain,232
2013-3-21,49,42,35,37,34,31,92,73,54,30.33,30.28,30.20,10,10,6,22,10,32,0.11,6,Rain,242
2013-3-22,49,40,30,37,32,28,92,73,53,30.41,30.36,30.32,10,10,10,15,4,20,0.02,4,Rain,272
2013-3-23,50,42,33,34,30,25,89,63,36,30.41,30.36,30.29,10,10,10,15,1,19,0.00,1,,345
2013-3-24,58,46,34,34,33,31,89,65,40,30.28,30.19,30.10,10,10,10,7,3,,0.00,4,,352
2013-3-25,59,49,39,41,35,32,82,63,43,30.09,30.00,29.93,10,10,10,12,5,25,T,3,Rain,331
2013-3-26,53,46,39,46,42,37,93,82,71,30.04,30.01,29.98,10,10,8,6,1,4,0.03,7,Rain,297
2013-3-27,64,52,40,49,44,39,96,76,56,30.01,29.95,29.91,10,6,0,16,2,23,0.04,7,Fog-Rain,237
2013-3-28,66,53,40,50,45,39,96,72,48,30.15,30.06,30.01,10,8,0,13,3,16,T,7,Fog,325
2013-3-29,68,57,46,50,47,45,100,73,45,30.22,30.18,30.14,10,9,2,9,2,22,0.02,5,Rain,345
2013-3-30,77,59,40,49,45,40,93,66,38,30.19,30.09,29.97,10,10,10,10,5,14,0.00,0,,354
2013-3-31,72,58,44,54,47,42,92,70,47,30.02,29.98,29.93,10,10,10,20,5,25,0.00,0,,251